• Join FlightAware (Why Join?)
  • Login
  • US Flag 
12:52PM EDT


 

Airport Tracker/Info


-or-


 

Live Flight TrackerFlight Track Log ✈ SWA3147 ✈ 12-Oct-2013 ✈ KPDX - KMDW

Flight Track Log - Related Links

Times and Time Zones

All times are in EDT time to prevent confusion due to time zone crossing. See the SWA3147 flight status page for this flight to view local times or setup timezone preferences in your user account.

Time Position Orientation Groundspeed Altitude Reporting Facility
EDT Latitude Longitude Course Direction KTS MPH feet Rate Location/Type
09:36AM 45.5983 -122.6300 300° West 152 175 1,000  Level Seattle Center
09:36AM 45.6006 -122.6356 300° West 153 176 1,300 1,740 Climbing Seattle Center
09:37AM 45.6231 -122.6878 302° West 204 235 2,600 1,800 Climbing Seattle Center
09:37AM 45.6292 -122.7003 305° West 197 227 3,100 1,860 Climbing Seattle Center
09:38AM 45.6633 -122.7778 302° West 217 250 5,200 2,940 Climbing Seattle Center
09:39AM 45.7292 -122.7511 16° North 267 307 9,100 3,180 Climbing Seattle Center
09:40AM 45.7331 -122.6331 87° East 298 343 11,700 2,520 Climbing Seattle Center
09:41AM 45.7369 -122.4975 88° East 333 383 14,300 2,520 Climbing Seattle Center
09:42AM 45.7386 -122.3528 89° East 359 413 16,900 2,820 Climbing Seattle Center
09:43AM 45.7411 -122.1669 89° East 386 444 20,100 2,820 Climbing Seattle Center
09:44AM 45.7453 -122.0083 88° East 397 457 22,600 2,040 Climbing Seattle Center
09:45AM 45.7464 -121.8600 89° East 409 471 24,300 1,740 Climbing Seattle Center
09:46AM 45.7461 -121.6872 90° East 430 495 26,200 1,800 Climbing Seattle Center
09:47AM 45.7456 -121.5089 90° East 446 513 28,000 1,680 Climbing Seattle Center
09:48AM 45.7433 -121.3272 91° East 456 525 29,700 1,620 Climbing Seattle Center
09:49AM 45.7419 -121.1414 91° East 465 535 31,300 1,560 Climbing Seattle Center
09:50AM 45.7400 -120.9550 91° East 467 537 32,900 1,380 Climbing Seattle Center
09:51AM 45.7375 -120.7703 91° East 467 537 34,200 1,260 Climbing Seattle Center
09:52AM 45.7347 -120.5808 91° East 473 544 35,500 1,320 Climbing Seattle Center
09:53AM 45.7314 -120.3953 91° East 468 539 36,900 720 Climbing Seattle Center
09:54AM 45.7278 -120.2100 92° East 465 535 37,000  Climbing Seattle Center
09:55AM 45.7242 -120.0236 92° East 466 536 37,000  Level Seattle Center
09:56AM 45.7200 -119.8375 92° East 467 537 37,000  Level Seattle Center
09:57AM 45.7144 -119.6547 92° East 461 531 37,000  Level Seattle Center
09:58AM 45.7053 -119.4728 94° East 458 527 37,000  Level Seattle Center
09:59AM 45.6972 -119.2886 94° East 460 529 37,000  Level Seattle Center
10:00AM 45.6886 -119.1058 94° East 461 531 37,000  Level Seattle Center
10:01AM 45.6800 -118.9247 94° East 458 527 37,000  Level Seattle Center
10:02AM 45.6700 -118.7422 94° East 459 528 37,000  Level Seattle Center
10:03AM 45.6603 -118.5594 94° East 462 532 37,000  Level Seattle Center
10:04AM 45.6506 -118.3383 94° East 465 535 37,000  Level Seattle Center
10:05AM 45.6403 -118.1553 95° East 464 534 37,000  Level Seattle Center
10:06AM 45.6289 -117.9700 95° East 467 537 37,000  Level Seattle Center
10:07AM 45.6186 -117.7875 95° East 464 534 37,000  Level Seattle Center
10:08AM 45.6072 -117.6028 95° East 467 537 37,000  Level Seattle Center
10:09AM 45.5958 -117.4203 95° East 465 535 37,000  Level Seattle Center
10:10AM 45.5850 -117.2539 95° East 464 534 37,000  Level Seattle Center
10:11AM 45.5728 -117.0717 95° East 463 533 37,000  Level Seattle Center
10:12AM 45.5614 -116.8886 95° East 464 534 37,000  Level Seattle Center
10:13AM 45.5511 -116.7436 96° East 463 533 37,000  Level Salt Lake Center
10:14AM 45.5378 -116.5608 96° East 464 534 37,000  Level Salt Lake Center
10:15AM 45.5219 -116.3422 96° East 463 533 37,000  Level Salt Lake Center
10:16AM 45.5094 -116.1583 95° East 466 536 37,000  Level Salt Lake Center
10:17AM 45.4958 -115.9775 96° East 461 531 37,000  Level Salt Lake Center
10:18AM 45.4828 -115.7922 96° East 468 539 37,000  Level Salt Lake Center
10:19AM 45.4681 -115.6083 96° East 469 540 37,000  Level Salt Lake Center
10:20AM 45.4539 -115.4269 96° East 463 533 37,000  Level Salt Lake Center
10:21AM 45.4378 -115.2444 97° East 463 533 37,000  Level Salt Lake Center
10:22AM 45.4231 -115.0628 97° East 463 533 37,000  Level Salt Lake Center
10:23AM 45.4094 -114.8819 96° East 461 531 37,000  Level Salt Lake Center
10:24AM 45.3925 -114.6983 97° East 464 534 37,000  Level Salt Lake Center
10:25AM 45.3761 -114.5156 97° East 467 537 37,000  Level Salt Lake Center
10:26AM 45.3597 -114.3333 97° East 466 536 37,000  Level Salt Lake Center
10:27AM 45.3394 -114.1119 97° East 470 541 37,000  Level Salt Lake Center
10:28AM 45.3219 -113.9308 98° East 471 542 37,000  Level Salt Lake Center
10:29AM 45.3047 -113.7542 98° East 471 542 37,000  Level Salt Lake Center
10:30AM 45.2853 -113.5517 98° East 464 534 37,000  Level Salt Lake Center
10:31AM 45.2683 -113.3786 98° East 462 532 37,000  Level Salt Lake Center
10:33AM 45.2514 -113.2050 98° East 462 532 37,000  Level Salt Lake Center
10:34AM 45.2308 -113.0039 98° East 463 533 37,000  Level Salt Lake Center
10:35AM 45.2128 -112.8331 98° East 458 527 37,000  Level Salt Lake Center
10:36AM 45.1956 -112.6619 98° East 459 528 37,000  Level Salt Lake Center
10:37AM 45.1747 -112.4633 98° East 455 524 37,000  Level Salt Lake Center
10:38AM 45.1569 -112.2942 98° East 453 521 37,000  Level Salt Lake Center
10:39AM 45.1353 -112.0964 99° East 454 522 37,000  Level Salt Lake Center
10:40AM 45.1147 -111.9192 99° East 454 522 37,000  Level Salt Lake Center
10:41AM 45.0969 -111.7592 99° East 452 520 37,000  Level Salt Lake Center
10:42AM 45.0744 -111.5606 99° East 455 524 37,000  Level Salt Lake Center
10:43AM 45.0544 -111.3889 99° East 458 527 37,000  Level Salt Lake Center
10:44AM 45.0339 -111.2175 100° East 459 528 37,000  Level Salt Lake Center
10:45AM 45.0103 -111.0192 99° East 456 525 37,000  Level Salt Lake Center
10:46AM 44.9894 -110.8486 100° East 458 527 37,000  Level Salt Lake Center
10:47AM 44.9692 -110.6783 99° East 458 527 37,000  Level Salt Lake Center
10:48AM 44.9436 -110.4819 100° East 454 522 37,000  Level Salt Lake Center
10:49AM 44.9222 -110.3103 100° East 461 531 37,000  Level Salt Lake Center
10:50AM 44.8964 -110.1117 100° East 461 531 37,000  Level Salt Lake Center
10:51AM 44.8747 -109.9406 100° East 462 532 37,000  Level Salt Lake Center
10:52AM 44.8517 -109.7742 101° East 466 536 37,000  Level Salt Lake Center
10:53AM 44.8239 -109.5608 100° East 465 535 37,000  Level Salt Lake Center
10:54AM 44.7994 -109.3811 101° East 468 539 37,000  Level Salt Lake Center
10:55AM 44.7756 -109.2022 101° East 466 536 37,000  Level Salt Lake Center
10:56AM 44.7506 -109.0225 101° East 469 540 37,000  Level Salt Lake Center
10:57AM 44.7253 -108.8433 101° East 470 541 37,000  Level Salt Lake Center
10:58AM 44.7014 -108.6650 101° East 467 537 37,000  Level Salt Lake Center
10:59AM 44.6758 -108.4858 101° East 469 540 37,000  Level Salt Lake Center
11:00AM 44.6436 -108.2692 102° East 475 547 37,000  Level Salt Lake Center
11:01AM 44.6167 -108.0886 102° East 479 551 37,000  Level Salt Lake Center
11:02AM 44.5900 -107.9089 102° East 480 552 37,000  Level Salt Lake Center
11:03AM 44.5628 -107.7286 102° East 480 552 37,000  Level Salt Lake Center
11:04AM 44.5356 -107.5464 102° East 483 556 37,000  Level Salt Lake Center
11:05AM 44.5017 -107.3281 102° East 483 556 37,000  Level Salt Lake Center
11:06AM 44.4717 -107.1447 103° East 486 559 37,000  Level Salt Lake Center
11:07AM 44.4439 -106.9611 102° East 485 558 37,000  Level Salt Lake Center
11:08AM 44.4150 -106.7769 102° East 487 560 37,000  Level Salt Lake Center
11:09AM 44.3861 -106.5917 102° East 490 564 37,000  Level Salt Lake Center
11:10AM 44.3569 -106.4058 102° East 490 564 37,000  Level Salt Lake Center
11:11AM 44.3261 -106.2217 103° East 490 564 37,000  Level Salt Lake Center
11:12AM 44.2892 -106.0050 103° East 493 567 37,000  Level Salt Lake Center
11:14AM 44.2597 -105.8253 103° East 494 568 37,000  Level Salt Lake Center
11:15AM 44.2236 -105.6181 104° East 492 566 37,000  Level Salt Lake Center
11:16AM 44.1925 -105.4381 103° East 497 572 37,000  Level Salt Lake Center
11:17AM 44.1622 -105.2606 103° East 494 568 37,000  Level Salt Lake Center
11:18AM 44.1261 -105.0519 103° East 495 570 37,000  Level Salt Lake Center
11:19AM 44.0936 -104.8736 104° East 496 571 37,000  Level Salt Lake Center
11:20AM 44.0450 -104.6064 104° East 498 573 37,000  Level Denver Center
11:21AM 44.0064 -104.3975 104° East 498 573 37,000  Level Denver Center
11:22AM 43.9733 -104.2183 104° East 500 575 37,000  Level Denver Center
11:23AM 43.9342 -104.0081 104° East 503 579 37,000  Level Denver Center
11:24AM 43.9003 -103.8275 105° East 505 581 37,000  Level Denver Center
11:25AM 43.8603 -103.6175 105° East 503 579 37,000  Level Denver Center
11:26AM 43.8269 -103.4389 104° East 502 578 37,000  Level Denver Center
11:27AM 43.7853 -103.2292 105° East 503 579 37,000  Level Denver Center
11:28AM 43.7506 -103.0500 105° East 504 580 37,000  Level Denver Center
11:29AM 43.7081 -102.8422 106° East 503 579 37,000  Level Denver Center
11:30AM 43.6731 -102.6658 105° East 501 577 37,000  Level Denver Center
11:31AM 43.6361 -102.4892 106° East 499 574 37,000  Level Denver Center
11:33AM 43.5964 -102.2864 105° East 493 567 37,000  Level Denver Center
11:34AM 43.5583 -102.0997 106° East 497 572 37,000  Level Denver Center
11:35AM 43.5206 -101.9172 106° East 497 572 37,000  Level Denver Center
11:36AM 43.4808 -101.7319 106° East 505 581 37,000  Level Denver Center
11:37AM 43.4419 -101.5450 106° East 509 586 37,000  Level Denver Center
11:38AM 43.3944 -101.3214 106° East 510 587 37,000  Level Denver Center
11:39AM 43.3544 -101.1339 106° East 512 589 37,000  Level Denver Center
11:40AM 43.3131 -100.9456 107° East 515 593 37,000  Level Denver Center
11:41AM 43.2711 -100.7583 107° East 515 593 37,000  Level Denver Center
11:42AM 43.2311 -100.5717 106° East 513 590 37,000  Level Minneapolis Center
11:43AM 43.1889 -100.3844 107° East 515 593 37,000  Level Minneapolis Center
11:44AM 43.1483 -100.2006 107° East 512 589 37,000  Level Minneapolis Center
11:45AM 43.1069 -100.0194 107° East 505 581 37,000  Level Minneapolis Center
11:46AM 43.0650 -99.8367 107° East 504 580 37,000  Level Minneapolis Center
11:47AM 43.0228 -99.6508 107° East 499 574 37,000  Level Minneapolis Center
11:48AM 42.9800 -99.4689 108° East 500 575 37,000  Level Minneapolis Center
11:49AM 42.9372 -99.2892 108° East 498 573 37,000  Level Minneapolis Center
11:50AM 42.8944 -99.1069 108° East 502 578 37,000  Level Minneapolis Center
11:51AM 42.8517 -98.9258 108° East 501 577 37,000 -480 Level Minneapolis Center
11:52AM 42.8081 -98.7433 108° East 504 580 36,100 -1,020 Descending Minneapolis Center
11:53AM 42.7544 -98.5256 108° East 506 582 35,000 -540 Descending Minneapolis Center
11:54AM 42.6825 -98.3619 121° Southeast 500 575 35,000  Level Minneapolis Center
11:55AM 42.5775 -98.2406 140° Southeast 493 567 35,000  Level Minneapolis Center
11:56AM 42.4744 -98.1200 139° Southeast 490 564 35,000  Level Minneapolis Center
11:57AM 42.3722 -97.9986 139° Southeast 489 563 35,000  Level Minneapolis Center
11:58AM 42.2700 -97.8767 139° Southeast 488 562 35,000  Level Minneapolis Center
11:59AM 42.1758 -97.7633 138° Southeast 484 557 35,000  Level Minneapolis Center
12:00PM 42.0550 -97.6131 137° Southeast 489 563 35,000  Level Minneapolis Center
12:01PM 41.9544 -97.4883 137° Southeast 493 567 35,000  Level Minneapolis Center
12:02PM 41.8531 -97.3622 137° Southeast 495 570 35,000  Level Minneapolis Center
12:03PM 41.7556 -97.2339 136° Southeast 494 568 35,000  Level Minneapolis Center
12:04PM 41.6561 -97.1078 137° Southeast 493 567 35,000  Level Minneapolis Center
12:05PM 41.5586 -96.9803 136° Southeast 493 567 35,000  Level Minneapolis Center
12:06PM 41.4753 -96.8358 128° Southeast 502 578 35,000  Level Minneapolis Center
12:07PM 41.4592 -96.6458 96° East 518 596 35,000  Level Minneapolis Center
12:08PM 41.4572 -96.4172 91° East 514 592 35,000  Level Minneapolis Center
12:09PM 41.4531 -96.2458 92° East 515 593 35,000  Level Minneapolis Center
12:10PM 41.4514 -96.0586 91° East 510 587 35,000  Level Minneapolis Center
12:11PM 41.4478 -95.8711 91° East 507 583 35,000  Level Minneapolis Center
12:12PM 41.4439 -95.6475 91° East 504 580 35,000  Level Minneapolis Center
12:13PM 41.4378 -95.4617 92° East 507 583 35,000  Level Minneapolis Center
12:15PM 41.4333 -95.2756 92° East 504 580 35,000  Level Minneapolis Center
12:16PM 41.4306 -95.0900 91° East 502 578 35,000  Level Minneapolis Center
12:17PM 41.4256 -94.9006 92° East 508 585 35,000  Level Minneapolis Center
12:18PM 41.4194 -94.7150 92° East 505 581 35,000  Level Minneapolis Center
12:19PM 41.4136 -94.5317 92° East 497 572 35,000  Level Minneapolis Center
12:20PM 41.4064 -94.3125 92° East 495 570 35,000  Level Minneapolis Center
12:21PM 41.4011 -94.1622 93° East 494 568 35,000  Level Minneapolis Center
12:22PM 41.3942 -93.9472 92° East 490 564 35,000  Level Minneapolis Center
12:23PM 41.3869 -93.7678 93° East 488 562 35,000  Level Minneapolis Center
12:24PM 41.3808 -93.5892 93° East 488 562 35,000  Level Minneapolis Center
12:25PM 41.3747 -93.4081 93° East 490 564 35,000  Level Minneapolis Center
12:26PM 41.3681 -93.2286 93° East 489 563 35,000  Level Minneapolis Center
12:27PM 41.3603 -93.0489 93° East 489 563 35,000  Level Minneapolis Center
12:28PM 41.3525 -92.8692 93° East 489 563 35,000  Level Minneapolis Center
12:28PM 41.3481 -92.7597 93° East 489 563 35,000 -540 Level Chicago Center
12:29PM 41.3392 -92.5856 94° East 480 552 34,200 -900 Descending Chicago Center
12:30PM 41.3311 -92.4108 93° East 476 548 33,200 -1,080 Descending Chicago Center
12:31PM 41.3217 -92.2047 93° East 472 543 32,000 -1,080 Descending Chicago Center
12:32PM 41.3125 -92.0367 94° East 466 536 31,000 -540 Descending Chicago Center
12:34PM 41.3036 -91.8697 94° East 460 529 31,000  Level Chicago Center
12:35PM 41.2944 -91.6953 94° East 475 547 31,000  Level Chicago Center
12:36PM 41.2850 -91.5189 94° East 481 554 31,000 -120 Level Chicago Center
12:37PM 41.2733 -91.3100 94° East 479 551 30,800 -540 Descending Chicago Center
12:38PM 41.2636 -91.1614 95° East 468 539 29,900 -1,380 Descending Chicago Center
12:39PM 41.2536 -90.9942 94° East 456 525 28,000 -2,280 Descending Chicago Center
12:40PM 41.2417 -90.7992 95° East 444 511 25,300 -2,100 Descending Chicago Center
12:41PM 41.2319 -90.6383 95° East 437 503 23,700 -1,320 Descending Chicago Center
12:42PM 41.2136 -90.4844 99° East 424 488 22,700 -1,020 Descending Chicago Center
12:43PM 41.1556 -90.3625 122° Southeast 392 451 21,700 -1,020 Descending Chicago Center
12:44PM 41.0989 -90.2386 121° Southeast 391 450 20,700 -1,020 Descending Chicago Center
12:45PM 41.0433 -90.1167 121° Southeast 387 445 19,600 -1,140 Descending Chicago Center
12:46PM 40.9869 -89.9922 121° Southeast 358 412 18,400 -1,080 Descending Chicago Center
12:47PM 40.9400 -89.8864 120° Southeast 340 391 17,500 -900 Descending Chicago Center
12:48PM 40.8900 -89.7814 122° Southeast 340 391 16,600 -1,020 Descending Chicago Center
12:49PM 40.8617 -89.6533 106° East 352 405 15,400 -780 Descending Chicago Center
12:50PM 40.9119 -89.5444 59° Northeast 351 404 15,000 -240 Descending Chicago Center
12:51PM 40.9669 -89.4417 55° Northeast 344 396 15,000  Level Chicago Center
12:52PM 41.0219 -89.3364 55° Northeast 347 399 15,000  Level Chicago Center
12:53PM 41.0769 -89.2314 55° Northeast 347 399 15,000 -300 Level Chicago Center
12:54PM 41.1342 -89.1231 55° Northeast 350 403 14,400 -780 Descending Chicago Center
12:55PM 41.1875 -89.0200 55° Northeast 344 396 13,500 -1,260 Descending Chicago Center
12:56PM 41.2608 -88.9056 50° Northeast 340 391 11,900 -1,620 Descending Chicago Center
12:57PM 41.3192 -88.8144 50° Northeast 329 379 10,300 -1,500 Descending Chicago Center
12:58PM 41.3664 -88.7197 56° Northeast 315 362 8,900 -1,260 Descending Chicago Center
12:59PM 41.4339 -88.6475 39° Northeast 311 358 7,700 -1,260 Descending Chicago Center
01:00PM 41.4794 -88.5564 56° Northeast 310 357 6,300 -840 Descending Chicago Center
01:01PM 41.5008 -88.4550 74° East 296 341 6,000 -180 Descending Chicago Center
01:02PM 41.5111 -88.3314 84° East 286 329 6,000 -240 Level Chicago Center
01:03PM 41.5211 -88.2425 81° East 260 299 5,600 -540 Descending Chicago Center
01:04PM 41.5683 -88.1711 49° Northeast 265 305 5,000 -300 Descending Chicago Center
01:05PM 41.6042 -88.1081 53° Northeast 236 272 5,000  Level Chicago Center
01:07PM 41.6133 -88.0319 81° East 216 249 5,000  Level Chicago Center
01:08PM 41.6225 -87.9564 81° East 209 241 5,000  Level Chicago Center
01:09PM 41.6308 -87.8808 82° East 207 238 5,000  Level Chicago Center
01:10PM 41.6389 -87.8058 82° East 205 236 5,000 -300 Level Chicago Center
01:11PM 41.6283 -87.7236 100° East 201 231 4,400 -540 Descending Chicago Center
01:12PM 41.6019 -87.6622 120° Southeast 194 223 4,000 -240 Descending Chicago Center
01:13PM 41.6039 -87.5994 88° East 203 234 4,000  Level Chicago Center
01:14PM 41.6553 -87.5844 12° North 211 243 4,000 -540 Level Chicago Center
01:15PM 41.7000 -87.6317 322° Northwest 208 239 3,000 -1,020 Descending Chicago Center
01:16PM 41.7389 -87.6758 320° Northwest 215 247 2,000 -540 Descending Chicago Center
01:17PM 41.7967 -87.6706 North 184 212 1,900 -300 Descending Chicago Center
01:18PM 41.8217 -87.7042 315° West 172 198 1,400 -420 Descending Chicago Center
01:19PM 41.8017 -87.7306 225° Southwest 147 169 1,100 -300 Descending Chicago Center